Time;durP1;ratioP1;P1;durP2;ratioP2;P2;SDS_P1;SDS_P2;PMS_P1;PMS_P2;Temp;Humidity;BMP_temperature;BMP_pressure;BME280_temperature;BME280_humidity;BME280_pressure;Samples;Min_cycle;Max_cycle;Signal;HPM_P1;HPM_P2
2023/07/29 00:00:14;;;;;;;17.37;7.00;;;;;;;18.26;100.00;99986.27;5070020;56;1141008;-65
2023/07/29 00:05:21;;;;;;;19.02;7.03;;;;;;;18.31;100.00;99985.73;5102474;56;1140841;-66
2023/07/29 00:10:27;;;;;;;14.20;6.17;;;;;;;18.26;100.00;99986.27;5048689;56;1141009;-65
2023/07/29 00:15:33;;;;;;;14.30;5.42;;;;;;;18.23;100.00;99995.48;5066561;56;1140865;-64
2023/07/29 00:20:38;;;;;;;12.17;5.23;;;;;;;18.21;100.00;99992.66;5047129;55;1140839;-66
2023/07/29 00:25:44;;;;;;;15.98;6.33;;;;;;;18.20;100.00;99985.13;5060425;55;1140850;-65
2023/07/29 00:30:49;;;;;;;16.73;7.10;;;;;;;18.26;100.00;99986.27;5151010;55;1141070;-65
2023/07/29 00:35:55;;;;;;;26.27;10.45;;;;;;;18.31;100.00;99987.07;5131250;55;1140848;-65
2023/07/29 00:41:03;;;;;;;28.00;10.55;;;;;;;18.32;100.00;99983.38;5051550;56;1142887;-65
2023/07/29 00:46:12;;;;;;;14.68;6.78;;;;;;;18.34;100.00;99984.00;5066356;56;1142820;-66
2023/07/29 00:51:18;;;;;;;9.50;4.30;;;;;;;18.35;100.00;99979.81;5111410;55;1140949;-65
2023/07/29 00:56:24;;;;;;;16.67;5.58;;;;;;;18.36;100.00;99981.47;5062307;55;1138686;-67
2023/07/29 01:01:30;;;;;;;19.95;6.55;;;;;;;18.30;100.00;99984.06;5131490;55;1150619;-65
2023/07/29 01:07:16;;;;;;;29.02;7.67;;;;;;;18.21;100.00;99977.43;5081278;55;1140743;-65
2023/07/29 01:12:30;;;;;;;33.10;8.88;;;;;;;18.21;100.00;99968.06;5103597;56;1140794;-66
2023/07/29 01:17:54;;;;;;;31.73;10.07;;;;;;;18.19;100.00;99969.25;5186745;55;1141054;-65
2023/07/29 01:22:59;;;;;;;40.35;10.20;;;;;;;18.20;100.00;99971.75;5102858;56;1142924;-65
2023/07/29 01:28:05;;;;;;;46.35;12.90;;;;;;;18.25;100.00;99976.56;5090291;56;1142931;-64
2023/07/29 01:33:28;;;;;;;44.35;12.55;;;;;;;18.30;100.00;99976.03;5031860;56;1143094;-64
2023/07/29 01:38:39;;;;;;;45.03;12.20;;;;;;;18.31;100.00;99986.56;5012736;56;1142880;-65
2023/07/29 01:43:47;;;;;;;35.13;9.48;;;;;;;18.31;100.00;99981.72;4990281;56;1211467;-66
2023/07/29 01:48:53;;;;;;;37.98;10.55;;;;;;;18.21;100.00;99981.45;5091806;56;1140989;-65
2023/07/29 01:53:59;;;;;;;41.63;10.35;;;;;;;18.06;100.00;99983.76;5143251;56;1142838;-65
2023/07/29 01:59:05;;;;;;;37.28;10.28;;;;;;;17.89;100.00;99983.05;5140660;55;1182632;-66
2023/07/29 02:04:10;;;;;;;31.48;8.98;;;;;;;17.86;100.00;99981.59;5215845;55;1142700;-66
2023/07/29 02:09:16;;;;;;;26.82;8.18;;;;;;;17.82;100.00;99984.30;5066057;56;1175520;-65
2023/07/29 02:14:21;;;;;;;38.38;9.08;;;;;;;17.72;100.00;99982.34;5064226;56;1160795;-64
2023/07/29 02:19:27;;;;;;;72.27;10.93;;;;;;;17.70;100.00;99979.04;5038439;56;1179771;-65
2023/07/29 02:24:33;;;;;;;35.78;11.57;;;;;;;17.71;100.00;99988.73;5119001;56;1142849;-65
2023/07/29 02:29:38;;;;;;;39.50;8.47;;;;;;;17.69;100.00;99992.59;5049442;56;1165970;-66
2023/07/29 02:34:44;;;;;;;44.83;9.25;;;;;;;17.66;100.00;99992.94;5032348;56;1140843;-65
2023/07/29 02:39:50;;;;;;;42.70;8.40;;;;;;;17.69;100.00;99993.92;5062913;56;1141194;-66
2023/07/29 02:44:55;;;;;;;76.02;11.48;;;;;;;17.65;100.00;99993.44;5042911;57;1140821;-66
2023/07/29 02:50:01;;;;;;;90.57;12.75;;;;;;;17.54;100.00;99989.31;5059038;56;1226847;-65
2023/07/29 02:55:07;;;;;;;102.27;12.07;;;;;;;17.44;100.00;99994.53;5054090;57;1142955;-65
2023/07/29 03:00:15;;;;;;;76.77;10.30;;;;;;;17.40;100.00;99995.41;5038012;57;1145115;-65
2023/07/29 03:05:20;;;;;;;60.25;10.38;;;;;;;17.34;100.00;100000.61;5059876;56;1242539;-66
2023/07/29 03:10:27;;;;;;;54.30;10.23;;;;;;;17.36;100.00;100010.13;5102524;56;1234125;-67
2023/07/29 03:15:34;;;;;;;42.10;9.33;;;;;;;17.31;100.00;100007.64;5068230;56;1272399;-65
2023/07/29 03:20:40;;;;;;;36.73;9.60;;;;;;;17.23;100.00;100010.70;5110612;55;1239578;-64
2023/07/29 03:25:51;;;;;;;27.60;7.58;;;;;;;17.25;100.00;100011.86;5092575;55;1233262;-66
2023/07/29 03:31:00;;;;;;;31.62;7.05;;;;;;;17.29;100.00;100017.16;5034076;56;1246270;-66
2023/07/29 03:36:05;;;;;;;22.65;7.20;;;;;;;17.31;100.00;100012.98;5014575;57;1243648;-65
2023/07/29 03:41:11;;;;;;;25.36;7.82;;;;;;;17.32;100.00;100014.65;5010375;57;1251573;-66
2023/07/29 03:46:19;;;;;;;18.25;5.72;;;;;;;17.35;100.00;100020.98;4980590;57;1249819;-64
2023/07/29 03:51:24;;;;;;;21.20;5.00;;;;;;;17.35;100.00;100016.98;5006759;57;1250174;-64
2023/07/29 03:56:30;;;;;;;17.32;5.72;;;;;;;17.25;100.00;100022.55;5024976;56;1246792;-65
2023/07/29 04:01:35;;;;;;;14.68;4.62;;;;;;;17.15;100.00;100017.39;5134031;56;1143016;-65
2023/07/29 04:06:41;;;;;;;17.62;4.85;;;;;;;17.10;100.00;100026.95;5081601;55;1182364;-65
2023/07/29 04:11:47;;;;;;;15.67;4.50;;;;;;;17.09;100.00;100030.63;4966948;57;1143000;-65
2023/07/29 04:16:52;;;;;;;14.70;4.25;;;;;;;17.15;100.00;100035.27;5129836;55;1248365;-65
2023/07/29 04:21:58;;;;;;;10.68;3.15;;;;;;;17.29;100.00;100033.20;5149694;56;1247984;-65
2023/07/29 04:27:04;;;;;;;4.78;3.10;;;;;;;17.38;100.00;100034.84;5110420;56;1142812;-67
2023/07/29 04:32:10;;;;;;;5.12;3.70;;;;;;;17.43;100.00;100035.13;4883982;58;1141092;-65
2023/07/29 04:37:15;;;;;;;5.37;4.03;;;;;;;17.43;100.00;100038.31;4938995;57;1140728;-64
2023/07/29 04:42:21;;;;;;;4.12;3.70;;;;;;;17.43;100.00;100045.83;4901825;57;1141044;-65
2023/07/29 04:47:28;;;;;;;4.96;3.84;;;;;;;17.47;100.00;100040.47;4952625;57;1225003;-67
2023/07/29 04:52:34;;;;;;;5.58;3.47;;;;;;;17.54;100.00;100040.61;5119312;55;1141216;-66
2023/07/29 04:57:39;;;;;;;5.50;4.20;;;;;;;17.64;100.00;100031.88;5075309;56;1158803;-64
2023/07/29 05:02:45;;;;;;;4.10;3.80;;;;;;;17.73;100.00;100031.31;5075418;56;1248898;-65
2023/07/29 05:07:51;;;;;;;4.30;3.55;;;;;;;17.76;100.00;100032.31;5064693;56;1140837;-65
2023/07/29 05:12:57;;;;;;;6.67;5.10;;;;;;;17.82;100.00;100043.14;5013369;57;1186042;-66
2023/07/29 05:18:02;;;;;;;5.12;4.37;;;;;;;17.85;100.00;100034.77;5038605;56;1163069;-65
2023/07/29 05:23:08;;;;;;;5.92;4.15;;;;;;;17.91;100.00;100030.53;5063283;56;1141251;-65
2023/07/29 05:28:14;;;;;;;18.80;7.43;;;;;;;17.92;100.00;100026.34;5073576;56;1141017;-66
2023/07/29 05:33:20;;;;;;;11.38;7.10;;;;;;;17.99;100.00;100033.67;4957874;56;1142940;-65
2023/07/29 05:38:26;;;;;;;7.70;6.90;;;;;;;18.05;100.00;100043.64;5005346;56;1142806;-64
2023/07/29 05:43:32;;;;;;;9.75;7.53;;;;;;;18.15;100.00;100040.23;4994653;56;1140975;-66
2023/07/29 05:48:38;;;;;;;9.33;7.53;;;;;;;18.23;100.00;100034.30;5040659;56;1140902;-65
2023/07/29 05:53:44;;;;;;;13.57;9.67;;;;;;;18.28;100.00;100032.43;5045660;57;1140857;-66
2023/07/29 05:58:49;;;;;;;25.60;9.68;;;;;;;18.26;100.00;100039.30;5030894;57;1143092;-65
2023/07/29 06:03:55;;;;;;;11.57;8.43;;;;;;;18.39;100.00;100040.53;5030978;57;1143255;-66
2023/07/29 06:09:01;;;;;;;13.65;7.83;;;;;;;18.56;100.00;100034.84;5051018;57;1143272;-65
2023/07/29 06:14:07;;;;;;;9.83;6.42;;;;;;;18.60;100.00;100040.20;5107626;56;1143005;-66
2023/07/29 06:19:13;;;;;;;6.55;4.85;;;;;;;18.74;100.00;100043.08;5112934;55;1141076;-65
2023/07/29 06:24:19;;;;;;;8.15;4.28;;;;;;;19.05;100.00;100033.53;5144264;56;1141153;-65
2023/07/29 06:29:25;;;;;;;6.55;3.58;;;;;;;19.41;100.00;100038.41;5050782;56;1141039;-66
2023/07/29 06:34:30;;;;;;;11.65;4.50;;;;;;;19.63;100.00;100040.67;5042309;56;1141166;-67
2023/07/29 06:39:36;;;;;;;4.60;4.03;;;;;;;19.89;100.00;100036.94;5042296;56;1143149;-65
2023/07/29 06:44:42;;;;;;;4.05;3.55;;;;;;;20.10;100.00;100046.02;5062078;56;1140756;-65
2023/07/29 06:49:48;;;;;;;3.35;3.15;;;;;;;20.28;100.00;100042.38;5042861;56;1140896;-66
2023/07/29 06:54:53;;;;;;;3.80;3.50;;;;;;;20.50;100.00;100030.59;5042305;57;1140841;-66
2023/07/29 06:59:59;;;;;;;5.45;3.80;;;;;;;20.67;100.00;100026.58;5061959;57;1140758;-66
2023/07/29 07:05:05;;;;;;;4.60;3.67;;;;;;;20.89;100.00;100029.22;5042352;57;1140884;-65
2023/07/29 07:10:11;;;;;;;3.60;3.30;;;;;;;21.17;100.00;100015.20;5042797;57;1140831;-66
2023/07/29 07:15:16;;;;;;;3.58;3.37;;;;;;;21.17;100.00;100015.20;5062512;57;1140810;-65
2023/07/29 07:20:22;;;;;;;3.83;3.58;;;;;;;21.41;100.00;100027.31;5110335;56;1141105;-65
2023/07/29 07:25:28;;;;;;;17.62;7.60;;;;;;;21.52;100.00;100025.42;5068616;56;1140763;-66
2023/07/29 07:30:33;;;;;;;42.90;19.70;;;;;;;21.61;100.00;100015.28;5072728;56;1142898;-66
2023/07/29 07:35:42;;;;;;;19.55;10.35;;;;;;;21.85;100.00;100020.61;5146704;56;1145182;-66
2023/07/29 07:40:58;;;;;;;10.32;7.85;;;;;;;21.78;100.00;100025.17;5126480;56;1144952;-65
2023/07/29 07:46:04;;;;;;;3.15;2.83;;;;;;;21.89;100.00;100013.27;5126692;56;1142903;-65
2023/07/29 07:51:16;;;;;;;3.80;2.60;;;;;;;22.15;100.00;100009.01;5147001;56;1140823;-65
2023/07/29 07:56:21;;;;;;;3.13;2.90;;;;;;;22.34;100.00;100002.25;4881209;59;1140985;-65
2023/07/29 08:01:27;;;;;;;2.58;2.20;;;;;;;22.49;100.00;100003.38;5042254;57;1140892;-66
2023/07/29 08:06:34;;;;;;;2.87;2.53;;;;;;;22.42;100.00;99999.88;5055754;56;1140898;-65
2023/07/29 08:11:39;;;;;;;3.02;2.77;;;;;;;22.23;100.00;100007.44;5061906;57;1138720;-67
2023/07/29 08:16:45;;;;;;;2.70;2.50;;;;;;;22.30;100.00;100002.90;5067473;56;1140686;-65
2023/07/29 08:21:50;;;;;;;5.60;3.00;;;;;;;22.59;100.00;99997.06;5114171;56;1140892;-66
2023/07/29 08:26:56;;;;;;;3.72;2.52;;;;;;;22.85;100.00;99996.21;5094284;56;1139174;-65
2023/07/29 08:32:03;;;;;;;2.12;2.00;;;;;;;23.11;100.00;100002.03;5041478;56;1138800;-66
2023/07/29 08:37:08;;;;;;;2.30;2.20;;;;;;;23.25;100.00;99992.02;5091052;56;1140759;-66
2023/07/29 08:42:20;;;;;;;2.30;2.20;;;;;;;23.42;100.00;99987.27;5090879;56;1138719;-66
2023/07/29 08:47:26;;;;;;;2.37;2.27;;;;;;;23.62;100.00;99981.80;5055833;57;1138938;-65
2023/07/29 08:52:34;;;;;;;2.44;2.22;;;;;;;23.71;100.00;99983.19;5054344;57;1138903;-66
2023/07/29 08:57:40;;;;;;;3.65;2.90;;;;;;;23.75;100.00;99979.54;4973506;56;1138874;-65
2023/07/29 09:02:45;;;;;;;2.40;2.20;;;;;;;23.88;100.00;99982.14;5024865;56;1138857;-65
2023/07/29 09:07:53;;;;;;;6.45;2.05;;;;;;;24.01;100.00;99984.75;5056031;57;1138823;-66
2023/07/29 09:12:58;;;;;;;1.87;1.77;;;;;;;24.17;100.00;99980.67;5051053;57;1138589;-65
2023/07/29 09:18:17;;;;;;;1.90;1.80;;;;;;;24.39;100.00;99973.05;5062656;56;1138690;-66
2023/07/29 09:23:22;;;;;;;3.80;1.80;;;;;;;24.58;100.00;99967.98;5038999;57;1138674;-63
2023/07/29 09:28:28;;;;;;;1.47;1.45;;;;;;;24.64;100.00;99960.83;5101658;56;1138995;-62
2023/07/29 09:33:37;;;;;;;2.75;1.40;;;;;;;24.77;100.00;99961.52;5047544;56;1138781;-64
2023/07/29 09:38:45;;;;;;;5.67;1.30;;;;;;;24.72;100.00;99965.96;5061731;57;1139029;-64
2023/07/29 09:44:03;;;;;;;1.20;1.20;;;;;;;24.72;100.00;99959.20;5042218;57;1138750;-63
2023/07/29 09:49:09;;;;;;;2.60;1.12;;;;;;;24.64;100.00;99959.48;5042169;56;1138763;-63
2023/07/29 09:54:15;;;;;;;1.45;1.45;;;;;;;24.75;100.00;99956.84;5062288;56;1138843;-64
2023/07/29 09:59:24;;;;;;;1.22;1.22;;;;;;;24.97;100.00;99958.62;5080062;56;1139014;-63
2023/07/29 10:04:31;;;;;;;1.90;1.67;;;;;;;25.06;100.00;99953.19;5040247;57;1138828;-63
2023/07/29 10:09:38;;;;;;;1.80;1.70;;;;;;;25.25;100.00;99948.59;5126948;56;1139294;-63
2023/07/29 10:14:45;;;;;;;3.05;1.90;;;;;;;25.51;100.00;99944.15;5147029;56;1138883;-62
2023/07/29 10:19:51;;;;;;;1.70;1.70;;;;;;;25.76;100.00;99939.98;4995059;57;1138787;-64
2023/07/29 10:25:00;;;;;;;5.60;2.17;;;;;;;25.81;100.00;99933.88;5042203;56;1138638;-64
2023/07/29 10:30:07;;;;;;;2.20;1.55;;;;;;;25.96;100.00;99930.19;5155865;56;1138967;-63
2023/07/29 10:35:14;;;;;;;2.00;1.60;;;;;;;26.16;100.00;99918.45;5136145;56;1138813;-66
2023/07/29 10:40:20;;;;;;;2.20;2.00;;;;;;;26.08;100.00;99916.11;5119030;56;1138786;-66
2023/07/29 10:45:26;;;;;;;2.20;1.98;;;;;;;26.09;100.00;99909.64;5144524;56;1139053;-66
2023/07/29 10:50:32;;;;;;;3.20;2.90;;;;;;;26.01;100.00;99897.77;5118739;56;1138698;-65
2023/07/29 10:55:38;;;;;;;2.10;2.00;;;;;;;26.06;100.00;99886.23;5061168;56;1138858;-65
2023/07/29 11:00:45;;;;;;;7.28;1.90;;;;;;;26.27;100.00;99873.45;5083878;56;1139159;-65
2023/07/29 11:05:55;;;;;;;1.80;1.80;;;;;;;26.46;100.00;99874.97;5069316;56;1139087;-66
2023/07/29 11:11:09;;;;;;;2.27;2.17;;;;;;;26.71;100.00;99876.59;5061163;56;1139293;-65
2023/07/29 11:16:17;;;;;;;2.33;2.00;;;;;;;26.94;100.00;99880.61;5081643;56;1138727;-66
2023/07/29 11:21:24;;;;;;;4.05;2.40;;;;;;;27.08;100.00;99862.14;5073063;56;1138932;-66
2023/07/29 11:26:29;;;;;;;2.58;2.37;;;;;;;27.19;100.00;99857.22;5072074;56;1138643;-66
2023/07/29 11:31:42;;;;;;;8.80;4.38;;;;;;;27.17;100.00;99845.77;5077822;56;1141578;-67
2023/07/29 11:36:48;;;;;;;2.75;2.55;;;;;;;27.16;100.00;99843.59;5080220;56;1139220;-67
2023/07/29 11:41:53;;;;;;;2.30;2.20;;;;;;;27.37;100.00;99833.89;5052546;56;1139014;-66
2023/07/29 11:46:59;;;;;;;3.33;2.33;;;;;;;27.55;100.00;99838.28;5044144;56;1138748;-66
2023/07/29 11:52:12;;;;;;;2.42;2.33;;;;;;;27.63;100.00;99825.69;5066622;56;1139097;-66
2023/07/29 11:57:21;;;;;;;10.13;8.85;;;;;;;27.64;100.00;99823.27;5013788;56;1138875;-65
2023/07/29 12:02:27;;;;;;;2.40;2.20;;;;;;;27.68;100.00;99808.09;5053162;56;1140725;-67
2023/07/29 12:07:34;;;;;;;1.94;1.84;;;;;;;27.72;100.00;99797.55;5042895;56;1138837;-65
2023/07/29 12:12:51;;;;;;;1.90;1.80;;;;;;;27.82;100.00;99793.63;5071241;56;1138948;-67
2023/07/29 12:17:58;;;;;;;2.55;2.45;;;;;;;27.95;100.00;99785.97;4932241;57;1138713;-66
2023/07/29 12:23:05;;;;;;;6.35;2.27;;;;;;;28.00;100.00;99768.34;4959712;56;1139201;-66
2023/07/29 12:28:11;;;;;;;3.90;2.20;;;;;;;28.02;100.00;99758.58;4979032;57;1138835;-66
2023/07/29 12:33:35;;;;;;;2.30;2.20;;;;;;;28.16;100.00;99761.75;4959214;58;1138928;-67
2023/07/29 12:38:42;;;;;;;5.90;1.95;;;;;;;28.30;100.00;99751.63;4958879;58;1138892;-66
2023/07/29 12:43:47;;;;;;;2.15;1.87;;;;;;;28.20;100.00;99741.17;5124886;56;1139014;-67
2023/07/29 12:48:53;;;;;;;2.58;2.15;;;;;;;28.16;98.05;99724.51;5113016;56;1138888;-66
2023/07/29 12:53:58;;;;;;;2.55;2.10;;;;;;;28.29;100.00;99717.89;5126932;56;1136743;-66
2023/07/29 12:59:05;;;;;;;2.30;2.10;;;;;;;28.45;98.47;99708.00;5126406;56;1138880;-66
2023/07/29 13:04:12;;;;;;;5.33;2.25;;;;;;;28.45;96.61;99704.74;5147062;56;1136885;-65
2023/07/29 13:09:18;;;;;;;10.03;7.53;;;;;;;28.51;99.68;99706.98;5126738;56;1136494;-67
2023/07/29 13:14:26;;;;;;;4.97;2.05;;;;;;;28.47;98.58;99705.31;5126605;56;1139059;-65
2023/07/29 13:19:31;;;;;;;2.15;1.70;;;;;;;28.48;95.61;99703.41;5094266;56;1137101;-67
2023/07/29 13:24:37;;;;;;;1.72;1.62;;;;;;;28.35;95.70;99710.91;5080476;57;1136990;-67
2023/07/29 13:29:49;;;;;;;2.60;2.40;;;;;;;28.30;95.82;99697.23;5123189;56;1136832;-65
2023/07/29 13:34:50;;;;;;;6.00;3.50;;;;;;;28.20;96.98;99691.70;5125038;56;1136778;-62
2023/07/29 13:39:56;;;;;;;2.87;2.30;;;;;;;28.16;98.05;99679.64;4978915;58;1136597;-66
2023/07/29 13:45:02;;;;;;;3.52;1.72;;;;;;;28.23;82.08;99666.72;5099778;56;1136863;-66
2023/07/29 13:50:09;;;;;;;1.98;1.87;;;;;;;28.29;81.77;99664.31;5126539;56;1136757;-65
2023/07/29 13:55:14;;;;;;;2.30;2.20;;;;;;;28.25;79.61;99668.64;5146948;56;1137001;-65
2023/07/29 14:00:20;;;;;;;1.62;1.52;;;;;;;28.10;80.20;99657.56;5126480;56;1136904;-66
2023/07/29 14:05:27;;;;;;;1.62;1.52;;;;;;;28.03;81.38;99647.41;5082616;56;1136697;-65
2023/07/29 14:10:33;;;;;;;1.80;1.70;;;;;;;27.97;80.44;99626.67;5050241;56;1136822;-65
2023/07/29 14:15:39;;;;;;;1.80;1.70;;;;;;;27.88;81.08;99626.84;5074596;56;1136821;-65
2023/07/29 14:20:44;;;;;;;2.70;1.70;;;;;;;27.72;81.30;99639.95;5047977;56;1136913;-65
2023/07/29 14:25:51;;;;;;;3.57;1.83;;;;;;;27.03;90.41;99666.64;5079103;56;1136886;-67
2023/07/29 14:30:58;;;;;;;7.73;2.50;;;;;;;26.15;95.06;99664.73;5075063;56;1136762;-65
2023/07/29 14:36:04;;;;;;;6.17;2.17;;;;;;;25.46;100.00;99727.42;5069256;56;1136922;-65
2023/07/29 14:41:10;;;;;;;5.08;2.17;;;;;;;23.98;100.00;99743.44;5112270;56;1138813;-64
2023/07/29 14:46:15;;;;;;;11.95;2.60;;;;;;;23.18;100.00;99733.06;5095192;56;1138692;-65
2023/07/29 14:51:22;;;;;;;3.83;1.72;;;;;;;22.81;100.00;99714.55;5069298;56;1141060;-66
2023/07/29 14:56:27;;;;;;;3.40;1.77;;;;;;;22.71;100.00;99700.19;5057920;56;1138835;-65
2023/07/29 15:01:33;;;;;;;7.92;3.58;;;;;;;22.66;100.00;99711.30;5056107;56;1139009;-65
2023/07/29 15:06:39;;;;;;;9.40;3.22;;;;;;;22.75;100.00;99670.92;5064277;57;1139158;-66
2023/07/29 15:11:45;;;;;;;4.28;2.00;;;;;;;22.78;100.00;99691.55;5052599;57;1138953;-64
2023/07/29 15:16:50;;;;;;;4.28;2.85;;;;;;;22.74;100.00;99684.10;5048455;57;1139032;-65
2023/07/29 15:21:56;;;;;;;4.22;2.50;;;;;;;22.87;100.00;99675.12;5072700;57;1138886;-65
2023/07/29 15:27:02;;;;;;;6.97;3.95;;;;;;;22.98;100.00;99674.40;5078406;56;1138884;-66
2023/07/29 15:32:07;;;;;;;2.87;2.15;;;;;;;23.13;100.00;99669.50;5068824;56;1138835;-65
2023/07/29 15:37:14;;;;;;;3.35;1.57;;;;;;;23.33;100.00;99664.75;5095339;56;1139076;-66
2023/07/29 15:42:19;;;;;;;1.47;0.93;;;;;;;23.60;100.00;99662.62;5046909;56;1138848;-66
2023/07/29 15:47:25;;;;;;;3.05;1.32;;;;;;;23.85;100.00;99640.41;5030438;56;1138731;-65
2023/07/29 15:52:30;;;;;;;3.20;2.12;;;;;;;23.94;100.00;99632.02;4995996;57;1138975;-66
2023/07/29 15:57:36;;;;;;;6.08;3.40;;;;;;;23.89;100.00;99598.93;5039507;56;1138770;-64
2023/07/29 16:02:42;;;;;;;5.70;2.67;;;;;;;23.78;100.00;99600.53;4971675;57;1138979;-64
2023/07/29 16:07:48;;;;;;;2.73;2.47;;;;;;;23.71;100.00;99598.95;4973472;57;1138909;-66
2023/07/29 16:12:53;;;;;;;6.45;2.00;;;;;;;23.67;100.00;99601.83;4992957;57;1138896;-65
2023/07/29 16:17:59;;;;;;;1.67;1.55;;;;;;;23.60;100.00;99588.92;5041355;57;1138889;-64
2023/07/29 16:23:05;;;;;;;1.57;1.47;;;;;;;23.43;100.00;99594.89;5055490;57;1138900;-65
2023/07/29 16:28:11;;;;;;;1.70;1.60;;;;;;;23.19;100.00;99612.49;5075149;57;1139337;-65
2023/07/29 16:33:16;;;;;;;2.33;1.57;;;;;;;22.71;100.00;99633.31;5051087;57;1138889;-66
2023/07/29 16:38:22;;;;;;;1.40;1.37;;;;;;;22.43;100.00;99640.46;5039284;57;1138796;-64
2023/07/29 16:43:27;;;;;;;1.75;1.32;;;;;;;22.26;100.00;99662.22;5134056;56;1138748;-65
2023/07/29 16:48:33;;;;;;;2.25;2.02;;;;;;;22.12;100.00;99703.20;5044638;56;1138763;-65
2023/07/29 16:53:39;;;;;;;2.80;1.22;;;;;;;21.94;100.00;99763.09;5042473;56;1138778;-65
2023/07/29 16:58:44;;;;;;;3.65;1.82;;;;;;;21.48;100.00;99775.27;5062667;56;1139103;-65
2023/07/29 17:03:50;;;;;;;3.93;1.77;;;;;;;20.86;100.00;99805.16;5043213;56;1138820;-66
2023/07/29 17:08:55;;;;;;;1.47;1.17;;;;;;;20.43;100.00;99781.25;5042687;56;1139154;-65
2023/07/29 17:14:01;;;;;;;3.42;1.90;;;;;;;20.11;100.00;99773.33;5061240;56;1138816;-65
2023/07/29 17:19:06;;;;;;;1.05;1.00;;;;;;;20.00;100.00;99769.87;5026487;57;1138912;-65
2023/07/29 17:24:12;;;;;;;3.42;1.52;;;;;;;19.86;100.00;99765.45;5003013;57;1138937;-66
2023/07/29 17:29:18;;;;;;;8.15;2.02;;;;;;;19.91;100.00;99760.30;5124697;56;1138961;-64
2023/07/29 17:34:23;;;;;;;8.45;3.58;;;;;;;20.17;100.00;99759.59;5041235;57;1138723;-64
2023/07/29 17:39:29;;;;;;;9.93;3.10;;;;;;;20.35;100.00;99757.20;5047799;56;1138792;-65
2023/07/29 17:44:35;;;;;;;3.97;1.60;;;;;;;20.53;100.00;99744.59;5095111;56;1138768;-65
2023/07/29 17:49:43;;;;;;;5.72;1.90;;;;;;;20.69;100.00;99759.84;5082591;56;1139037;-67
2023/07/29 17:54:48;;;;;;;2.70;1.75;;;;;;;20.82;100.00;99758.20;4939894;58;1139137;-66
2023/07/29 17:59:54;;;;;;;9.28;5.12;;;;;;;20.83;100.00;99767.41;5054496;56;1138927;-66
2023/07/29 18:05:00;;;;;;;4.80;2.77;;;;;;;20.89;100.00;99777.36;5062175;57;1138836;-66
2023/07/29 18:10:06;;;;;;;10.75;4.87;;;;;;;20.92;100.00;99771.59;5042029;57;1138873;-66
2023/07/29 18:15:12;;;;;;;47.38;19.00;;;;;;;20.92;100.00;99768.06;5045302;56;1140999;-66
2023/07/29 18:20:17;;;;;;;5.42;3.08;;;;;;;20.93;100.00;99774.56;5074657;56;1142787;-66
2023/07/29 18:25:23;;;;;;;5.22;2.00;;;;;;;20.92;100.00;99775.62;5069565;56;1138965;-66
2023/07/29 18:30:29;;;;;;;2.12;1.10;;;;;;;20.97;100.00;99774.47;5126786;56;1138907;-65
2023/07/29 18:35:34;;;;;;;2.27;1.30;;;;;;;21.00;100.00;99778.61;5126560;56;1139035;-66
2023/07/29 18:40:41;;;;;;;2.40;1.20;;;;;;;20.98;100.00;99773.95;5146594;56;1138982;-65
2023/07/29 18:45:46;;;;;;;1.67;1.45;;;;;;;21.01;100.00;99763.63;5092368;56;1138810;-64
2023/07/29 18:50:52;;;;;;;3.63;1.87;;;;;;;20.95;100.00;99754.20;5103862;55;1138919;-66
2023/07/29 18:55:58;;;;;;;5.03;3.00;;;;;;;20.89;100.00;99760.41;5084625;56;1138914;-64
2023/07/29 19:01:03;;;;;;;3.75;2.60;;;;;;;20.76;100.00;99763.90;5115048;56;1138805;-64
2023/07/29 19:06:10;;;;;;;1.36;1.26;;;;;;;20.70;100.00;99759.33;5064058;56;1139454;-65
2023/07/29 19:11:16;;;;;;;1.75;1.05;;;;;;;20.68;100.00;99747.44;5076452;56;1138840;-67
2023/07/29 19:16:21;;;;;;;1.85;1.30;;;;;;;20.67;100.00;99763.75;5049440;56;1139133;-66
2023/07/29 19:21:27;;;;;;;1.82;1.37;;;;;;;20.45;100.00;99749.66;5051575;56;1138689;-65
2023/07/29 19:26:32;;;;;;;2.40;1.37;;;;;;;20.37;100.00;99761.90;5072261;56;1138771;-66
2023/07/29 19:31:38;;;;;;;5.00;3.00;;;;;;;20.33;100.00;99741.80;4968366;58;1138863;-66
2023/07/29 19:36:45;;;;;;;1.64;1.54;;;;;;;20.27;100.00;99743.45;5090422;56;1138732;-67
2023/07/29 19:41:50;;;;;;;7.50;2.70;;;;;;;20.13;100.00;99746.28;5087079;56;1138910;-65
2023/07/29 19:46:56;;;;;;;2.63;2.30;;;;;;;19.98;100.00;99770.06;5074603;56;1138958;-64
2023/07/29 19:52:01;;;;;;;2.20;1.90;;;;;;;19.81;100.00;99777.28;5042368;56;1138835;-65
2023/07/29 19:57:07;;;;;;;2.58;1.85;;;;;;;19.76;100.00;99770.31;5042536;56;1138685;-65
2023/07/29 20:02:12;;;;;;;3.35;1.55;;;;;;;19.90;100.00;99772.89;5067681;56;1139085;-65
2023/07/29 20:07:18;;;;;;;4.30;2.12;;;;;;;19.89;100.00;99771.74;5042408;57;1138783;-66
2023/07/29 20:12:24;;;;;;;7.03;1.47;;;;;;;19.79;100.00;99770.77;5042366;57;1138723;-64
2023/07/29 20:17:30;;;;;;;4.30;1.07;;;;;;;19.76;100.00;99777.03;5045007;57;1139140;-67
2023/07/29 20:22:35;;;;;;;2.27;1.40;;;;;;;19.53;100.00;99779.47;5085884;56;1139162;-66
2023/07/29 20:27:42;;;;;;;6.12;1.70;;;;;;;19.38;100.00;99773.84;5089258;56;1138903;-65
2023/07/29 20:32:48;;;;;;;3.17;1.70;;;;;;;19.27;100.00;99788.06;4947932;58;1138852;-64
2023/07/29 20:37:54;;;;;;;11.83;2.42;;;;;;;19.17;100.00;99784.06;5089573;56;1138911;-64
2023/07/29 20:43:00;;;;;;;3.62;2.10;;;;;;;19.01;100.00;99795.04;5042317;57;1140722;-65
2023/07/29 20:48:05;;;;;;;8.13;3.40;;;;;;;18.87;100.00;99804.28;5127960;56;1138596;-64
2023/07/29 20:53:12;;;;;;;3.22;2.58;;;;;;;18.74;100.00;99808.16;5058711;56;1138645;-65
2023/07/29 20:58:17;;;;;;;3.02;2.62;;;;;;;18.63;100.00;99801.13;5048477;56;1138675;-65
2023/07/29 21:03:23;;;;;;;5.30;2.65;;;;;;;18.63;100.00;99796.61;5051091;57;1138627;-66
2023/07/29 21:08:31;;;;;;;7.47;2.60;;;;;;;18.59;100.00;99800.67;5051100;57;1138950;-64
2023/07/29 21:13:36;;;;;;;27.00;4.35;;;;;;;18.60;100.00;99799.15;5070781;57;1138943;-66
2023/07/29 21:18:42;;;;;;;4.22;2.72;;;;;;;18.58;100.00;99821.27;5050656;57;1140937;-64
2023/07/29 21:23:48;;;;;;;5.03;3.33;;;;;;;18.54;100.00;99815.92;5032420;57;1138856;-66
2023/07/29 21:28:53;;;;;;;10.70;3.67;;;;;;;18.50;100.00;99815.14;5014028;57;1139062;-65
2023/07/29 21:33:59;;;;;;;7.67;2.92;;;;;;;18.52;100.00;99815.78;5025681;56;1141031;-64
2023/07/29 21:39:04;;;;;;;12.97;2.70;;;;;;;18.54;100.00;99794.50;5037161;56;1138835;-64
2023/07/29 21:44:10;;;;;;;3.12;2.77;;;;;;;18.58;100.00;99801.66;5077216;56;1140905;-64
2023/07/29 21:49:16;;;;;;;12.23;3.45;;;;;;;18.60;100.00;99794.30;5042685;56;1138923;-64
2023/07/29 21:54:21;;;;;;;8.23;2.67;;;;;;;18.58;100.00;99789.13;5094328;55;1140696;-66
2023/07/29 21:59:27;;;;;;;8.68;2.30;;;;;;;18.66;100.00;99781.47;5125573;56;1138775;-65
2023/07/29 22:04:33;;;;;;;7.68;2.22;;;;;;;18.68;100.00;99788.81;5104705;56;1138708;-65
2023/07/29 22:09:38;;;;;;;8.23;2.60;;;;;;;18.66;100.00;99794.87;5093134;56;1138844;-66
2023/07/29 22:14:45;;;;;;;4.50;2.37;;;;;;;18.60;100.00;99792.45;5114744;56;1138799;-66
2023/07/29 22:19:51;;;;;;;2.47;2.17;;;;;;;18.51;100.00;99798.88;5097103;56;1138923;-65
2023/07/29 22:24:56;;;;;;;7.55;2.75;;;;;;;18.46;100.00;99813.36;5090616;56;1138824;-64
2023/07/29 22:30:02;;;;;;;5.45;2.62;;;;;;;18.34;100.00;99818.84;5119510;56;1138753;-65
2023/07/29 22:35:08;;;;;;;3.00;2.37;;;;;;;18.28;100.00;99827.64;5096698;56;1138588;-66
2023/07/29 22:40:16;;;;;;;4.58;2.60;;;;;;;18.25;100.00;99824.82;5057926;56;1138660;-65
2023/07/29 22:45:21;;;;;;;4.78;2.22;;;;;;;18.27;100.00;99830.83;5104865;56;1138534;-63
2023/07/29 22:50:26;;;;;;;13.13;2.95;;;;;;;18.33;100.00;99834.62;5142460;56;1138742;-66
2023/07/29 22:55:32;;;;;;;2.33;2.12;;;;;;;18.35;100.00;99833.06;5057395;56;1141299;-65
2023/07/29 23:00:38;;;;;;;2.87;2.35;;;;;;;18.37;100.00;99833.20;5042304;56;1138863;-66